Time;durP1;ratioP1;P1;durP2;ratioP2;P2;SDS_P1;SDS_P2;PMS_P1;PMS_P2;Temp;Humidity;BMP_temperature;BMP_pressure;BME280_temperature;BME280_humidity;BME280_pressure;Samples;Min_cycle;Max_cycle;Signal;HPM_P1;HPM_P2
2021/12/09 00:01:19;;;;;;;32.63;15.67;;;;;;;5.31;67.31;100106.59;4971834;28;96888;-88
2021/12/09 00:03:45;;;;;;;29.70;13.27;;;;;;;5.32;67.43;100110.84;4966338;28;97958;-87
2021/12/09 00:06:12;;;;;;;30.23;13.87;;;;;;;5.34;67.46;100107.63;4951309;28;97542;-89
2021/12/09 00:08:41;;;;;;;27.73;14.57;;;;;;;5.33;67.33;100122.47;4949182;28;98420;-87
2021/12/09 00:11:07;;;;;;;31.37;15.23;;;;;;;5.36;67.63;100118.06;4949900;28;96790;-89
2021/12/09 00:13:32;;;;;;;30.77;15.07;;;;;;;5.36;67.30;100118.81;4949711;28;97093;-87
2021/12/09 00:15:58;;;;;;;28.10;13.33;;;;;;;5.37;67.56;100108.66;4950917;28;99563;-88
2021/12/09 00:18:25;;;;;;;27.97;13.27;;;;;;;5.39;67.18;100106.97;4948831;28;98631;-87
2021/12/09 00:20:51;;;;;;;30.30;14.20;;;;;;;5.38;67.18;100105.47;4968614;28;96914;-88
2021/12/09 00:23:16;;;;;;;31.27;14.20;;;;;;;5.36;67.47;100110.63;4958866;28;97257;-89
2021/12/09 00:25:42;;;;;;;38.43;14.97;;;;;;;5.36;67.47;100120.78;4948624;28;98224;-89
2021/12/09 00:28:08;;;;;;;33.30;15.50;;;;;;;5.35;67.25;100103.69;4947656;28;97729;-90
2021/12/09 00:30:34;;;;;;;31.77;14.60;;;;;;;5.31;67.52;100101.13;4950945;28;96856;-89
2021/12/09 00:33:01;;;;;;;35.53;14.67;;;;;;;5.40;67.19;100100.28;4950171;28;96930;-87
2021/12/09 00:35:32;;;;;;;33.07;14.97;;;;;;;5.38;67.31;100102.72;4948715;28;96972;-89
2021/12/09 00:38:03;;;;;;;31.37;15.10;;;;;;;5.35;67.43;100120.06;4944777;28;99761;-89
2021/12/09 00:40:29;;;;;;;32.03;14.20;;;;;;;5.31;67.29;100086.72;4968717;28;96946;-87
2021/12/09 00:42:54;;;;;;;33.13;15.60;;;;;;;5.36;67.74;100098.97;4946791;28;96877;-88
2021/12/09 00:45:21;;;;;;;31.90;15.00;;;;;;;5.41;67.36;100122.88;4948989;28;99883;-88
2021/12/09 00:47:47;;;;;;;31.37;14.60;;;;;;;5.42;67.55;100119.66;4950778;28;97725;-88
2021/12/09 00:50:13;;;;;;;34.97;16.07;;;;;;;5.46;67.22;100095.66;4948448;28;96940;-87
2021/12/09 00:52:38;;;;;;;33.70;14.43;;;;;;;5.44;67.49;100108.31;4949660;28;97132;-87
2021/12/09 00:55:07;;;;;;;33.07;14.77;;;;;;;5.46;67.17;100109.31;4948363;28;99591;-89
2021/12/09 00:57:34;;;;;;;32.50;15.63;;;;;;;5.42;67.53;100108.75;4949654;28;97894;-88
2021/12/09 00:59:59;;;;;;;30.47;14.00;;;;;;;5.42;67.57;100111.47;4949672;28;96787;-87
2021/12/09 01:02:25;;;;;;;28.30;14.10;;;;;;;5.51;67.53;100102.44;4948393;28;96944;-88
2021/12/09 01:04:51;;;;;;;34.90;14.67;;;;;;;5.49;67.41;100096.72;4949752;28;97043;-86
2021/12/09 01:07:16;;;;;;;34.03;15.30;;;;;;;5.47;67.49;100099.16;4948838;28;97839;-87
2021/12/09 01:09:42;;;;;;;33.60;15.57;;;;;;;5.49;67.56;100104.91;4950868;28;96612;-86
2021/12/09 01:12:08;;;;;;;33.40;15.37;;;;;;;5.48;67.56;100106.88;4952565;28;97381;-89
2021/12/09 01:14:37;;;;;;;39.13;15.57;;;;;;;5.48;67.44;100106.88;4959909;28;98460;-88
2021/12/09 01:17:07;;;;;;;38.83;16.50;;;;;;;5.51;67.67;100110.63;4948243;28;97627;-89
2021/12/09 01:19:32;;;;;;;37.03;14.90;;;;;;;5.51;67.42;100121.53;4946828;28;97332;-88
2021/12/09 01:21:58;;;;;;;35.40;16.13;;;;;;;5.54;67.14;100107.72;4943137;28;96805;-87
2021/12/09 01:24:23;;;;;;;37.07;15.40;;;;;;;5.54;67.29;100104.25;4944228;28;97191;-87
2021/12/09 01:26:49;;;;;;;37.67;15.83;;;;;;;5.51;67.32;100100.47;4947862;28;100046;-89
2021/12/09 01:29:19;;;;;;;32.80;14.30;;;;;;;5.52;67.17;100112.91;4963660;28;97047;-87
2021/12/09 01:31:53;;;;;;;38.80;15.47;;;;;;;5.47;67.41;100121.75;4944780;28;97817;-88
2021/12/09 01:34:21;;;;;;;38.00;16.03;;;;;;;5.47;67.38;100113.56;4951880;28;99838;-87
2021/12/09 01:36:48;;;;;;;36.00;17.07;;;;;;;5.50;67.51;100111.88;4947398;28;98796;-89
2021/12/09 01:39:14;;;;;;;35.40;16.90;;;;;;;5.46;67.57;100114.75;4948530;28;96876;-89
2021/12/09 01:41:39;;;;;;;40.23;15.83;;;;;;;5.47;67.53;100116.28;4951879;28;97162;-89
2021/12/09 01:44:05;;;;;;;39.30;16.80;;;;;;;5.47;67.32;100110.06;4947098;28;96752;-88
2021/12/09 01:46:30;;;;;;;36.03;17.33;;;;;;;5.46;67.22;100095.66;4947869;28;98256;-87
2021/12/09 01:48:56;;;;;;;37.43;16.10;;;;;;;5.43;67.50;100110.28;4946329;28;97417;-88
2021/12/09 01:51:21;;;;;;;36.63;15.57;;;;;;;5.43;67.19;100104.81;4946552;28;97769;-88
2021/12/09 01:53:48;;;;;;;41.80;16.70;;;;;;;5.43;67.55;100123.91;4946962;28;96895;-88
2021/12/09 01:56:21;;;;;;;36.20;15.43;;;;;;;5.41;67.37;100111.97;4948192;28;97497;-87
2021/12/09 01:58:55;;;;;;;40.60;16.53;;;;;;;5.40;67.72;100115.91;4946321;28;97240;-89
2021/12/09 02:01:21;;;;;;;34.30;15.77;;;;;;;5.42;67.63;100113.47;4947036;28;97324;-89
2021/12/09 02:03:46;;;;;;;34.67;15.67;;;;;;;5.40;67.71;100122.09;4947102;28;98022;-88
2021/12/09 02:06:12;;;;;;;37.40;15.70;;;;;;;5.39;67.45;100109.72;4948354;28;97338;-88
2021/12/09 02:08:38;;;;;;;31.97;14.77;;;;;;;5.37;67.48;100097.75;4949566;28;97539;-88
2021/12/09 02:11:04;;;;;;;40.20;16.00;;;;;;;5.39;67.70;100100.75;4972427;28;96920;-88
2021/12/09 02:13:31;;;;;;;37.13;15.97;;;;;;;5.35;67.58;100097.47;4947074;28;98003;-89
2021/12/09 02:15:57;;;;;;;37.87;15.77;;;;;;;5.40;67.38;100089.38;4947064;28;97413;-89
2021/12/09 02:18:23;;;;;;;36.60;15.50;;;;;;;5.37;67.57;100089.56;4973529;28;97168;-88
2021/12/09 02:21:10;;;;;;;35.00;16.00;;;;;;;5.45;67.77;100094.19;4948759;28;98367;-87
2021/12/09 02:23:37;;;;;;;37.30;14.90;;;;;;;5.40;67.42;100111.19;4956525;28;104372;-89
2021/12/09 02:26:03;;;;;;;44.03;16.07;;;;;;;5.41;67.38;100107.25;4941174;28;97682;-88
2021/12/09 02:28:30;;;;;;;35.10;16.27;;;;;;;5.40;67.45;100105.75;4944483;28;97133;-88
2021/12/09 02:30:56;;;;;;;43.27;15.43;;;;;;;5.41;67.36;100104.53;4947879;28;96935;-87
2021/12/09 02:33:21;;;;;;;37.73;16.23;;;;;;;5.40;67.03;100099.53;4947362;28;96953;-88
2021/12/09 02:35:46;;;;;;;38.50;15.73;;;;;;;5.38;67.16;100112.88;4947725;28;96797;-88
2021/12/09 02:38:12;;;;;;;38.40;14.77;;;;;;;5.33;67.38;100106.88;4946451;28;97176;-89
2021/12/09 02:40:37;;;;;;;38.80;16.90;;;;;;;5.36;67.26;100115.31;4949434;28;96772;-87
2021/12/09 02:43:08;;;;;;;39.67;17.20;;;;;;;5.38;67.46;100110.91;4946873;28;97649;-88
2021/12/09 02:45:35;;;;;;;35.10;15.40;;;;;;;5.33;67.45;100120.50;4948514;28;97144;-87
2021/12/09 02:48:01;;;;;;;33.53;14.90;;;;;;;5.39;67.13;100117.88;4947252;28;97856;-88
2021/12/09 02:50:26;;;;;;;35.13;14.03;;;;;;;5.39;67.31;100136.97;4963238;28;97448;-88
2021/12/09 02:52:52;;;;;;;36.17;13.60;;;;;;;5.38;67.31;100142.88;4945985;28;98550;-88
2021/12/09 02:55:17;;;;;;;37.43;15.33;;;;;;;5.37;67.39;100117.59;4944217;28;97896;-87
2021/12/09 02:57:43;;;;;;;37.70;15.77;;;;;;;5.37;67.33;100117.59;4964585;28;96823;-88
2021/12/09 03:00:10;;;;;;;39.40;14.67;;;;;;;5.39;67.36;100128.78;4945860;28;97002;-89
2021/12/09 03:02:36;;;;;;;36.07;15.60;;;;;;;5.39;67.48;100130.75;4948511;28;97964;-89
2021/12/09 03:05:03;;;;;;;42.00;15.80;;;;;;;5.41;67.45;100129.09;4941670;28;97710;-88
2021/12/09 03:07:34;;;;;;;40.17;15.70;;;;;;;5.40;67.08;100130.28;4962040;28;97224;-86
2021/12/09 03:10:09;;;;;;;36.70;16.13;;;;;;;5.44;67.20;100160.84;4944591;28;96736;-88
2021/12/09 03:12:39;;;;;;;38.40;13.47;;;;;;;5.46;67.27;100149.50;4946951;28;98298;-88
2021/12/09 03:15:05;;;;;;;41.70;15.57;;;;;;;5.44;67.31;100143.75;4945864;28;97345;-87
2021/12/09 03:17:31;;;;;;;38.37;16.13;;;;;;;5.42;67.16;100151.66;4965815;28;96844;-89
2021/12/09 03:19:56;;;;;;;37.77;15.80;;;;;;;5.46;67.31;100142.03;4944145;28;97022;-88
2021/12/09 03:22:22;;;;;;;38.00;14.83;;;;;;;5.48;67.35;100136.91;4960831;28;97015;-88
2021/12/09 03:24:49;;;;;;;45.77;16.27;;;;;;;5.47;67.17;100161.91;4968723;28;97945;-89
2021/12/09 03:27:14;;;;;;;39.00;16.40;;;;;;;5.45;67.14;100137.06;4946462;28;97276;-88
2021/12/09 03:29:40;;;;;;;38.93;16.13;;;;;;;5.40;67.15;100143.94;4945959;28;96794;-87
2021/12/09 03:32:10;;;;;;;36.17;14.70;;;;;;;5.44;67.26;100143.75;4946807;28;98015;-87
2021/12/09 03:34:38;;;;;;;35.60;15.03;;;;;;;5.40;67.22;100126.81;4941669;28;97142;-87
2021/12/09 03:37:09;;;;;;;34.33;15.30;;;;;;;5.39;67.19;100130.75;4960357;28;96959;-87
2021/12/09 03:39:37;;;;;;;36.47;15.57;;;;;;;5.37;67.24;100128.50;4940904;28;96909;-88
2021/12/09 03:42:05;;;;;;;41.40;16.10;;;;;;;5.41;67.26;100139.22;4944049;28;97881;-89
2021/12/09 03:44:31;;;;;;;40.97;16.90;;;;;;;5.37;67.15;100128.50;4945581;28;99802;-88
2021/12/09 03:47:00;;;;;;;39.77;16.00;;;;;;;5.41;67.19;100129.09;4947151;28;96831;-89
2021/12/09 03:49:25;;;;;;;37.30;15.87;;;;;;;5.38;67.30;100140.16;4964367;28;97372;-89
2021/12/09 03:51:52;;;;;;;37.10;16.50;;;;;;;5.36;67.51;100121.53;4946658;28;99847;-87
2021/12/09 03:54:18;;;;;;;55.53;18.97;;;;;;;5.40;67.12;100141.19;4946215;28;99440;-89
2021/12/09 03:56:44;;;;;;;42.40;16.70;;;;;;;5.41;67.13;100140.00;4945547;28;97406;-88
2021/12/09 03:59:11;;;;;;;40.83;15.93;;;;;;;5.38;67.33;100160.00;4949168;28;97026;-89
2021/12/09 04:01:39;;;;;;;46.67;17.23;;;;;;;5.43;67.31;100153.91;4948063;28;98012;-88
2021/12/09 04:04:06;;;;;;;36.87;16.03;;;;;;;5.46;66.88;100139.31;4946565;28;102004;-87
2021/12/09 04:06:32;;;;;;;41.20;15.80;;;;;;;5.44;67.39;100157.41;4968947;28;97308;-89
2021/12/09 04:09:00;;;;;;;50.13;16.07;;;;;;;5.44;67.47;100158.13;4946828;28;97061;-89
2021/12/09 04:11:26;;;;;;;39.47;15.87;;;;;;;5.45;66.85;100146.00;4946697;28;97271;-89
2021/12/09 04:13:52;;;;;;;40.10;16.00;;;;;;;5.45;66.96;100139.78;4944299;28;99539;-89
2021/12/09 04:16:18;;;;;;;40.57;16.27;;;;;;;5.37;67.19;100155.03;4965032;28;97568;-89
2021/12/09 04:18:44;;;;;;;38.30;15.00;;;;;;;5.36;67.16;100140.63;4949921;28;96909;-89
2021/12/09 04:21:10;;;;;;;45.57;17.47;;;;;;;5.39;67.09;100131.53;4946916;28;100099;-87
2021/12/09 04:23:36;;;;;;;43.17;16.70;;;;;;;5.35;67.16;100133.69;4948242;28;96878;-89
2021/12/09 04:26:02;;;;;;;42.20;16.80;;;;;;;5.40;67.33;100132.25;4946987;28;96873;-90
2021/12/09 04:28:28;;;;;;;46.47;16.20;;;;;;;5.30;67.14;100128.88;4948272;28;97059;-89
2021/12/09 04:30:54;;;;;;;39.80;16.67;;;;;;;5.35;67.21;100138.38;4947914;28;98999;-89
2021/12/09 04:33:20;;;;;;;43.50;17.40;;;;;;;5.33;67.21;100142.31;4948148;28;97954;-89
2021/12/09 04:35:45;;;;;;;47.90;16.80;;;;;;;5.34;67.48;100148.53;4945960;28;102274;-88
2021/12/09 04:38:11;;;;;;;40.07;16.70;;;;;;;5.35;67.06;100152.78;4949840;28;97112;-88
2021/12/09 04:40:36;;;;;;;44.03;16.27;;;;;;;5.36;67.49;100132.44;4948964;28;99754;-89
2021/12/09 04:43:04;;;;;;;44.87;16.13;;;;;;;5.35;67.12;100135.66;4948923;28;97485;-89
2021/12/09 04:45:33;;;;;;;45.80;17.33;;;;;;;5.32;67.33;100145.53;4945724;28;97289;-87
2021/12/09 04:47:59;;;;;;;43.27;16.40;;;;;;;5.27;67.58;100135.25;4965194;28;97041;-89
2021/12/09 04:50:25;;;;;;;43.17;16.40;;;;;;;5.26;67.41;100150.13;4943398;28;97262;-91
2021/12/09 04:52:50;;;;;;;45.50;17.27;;;;;;;5.23;67.19;100135.44;4954880;28;97096;-90
2021/12/09 04:55:15;;;;;;;41.77;17.00;;;;;;;5.23;67.32;100134.69;4947080;28;97450;-90
2021/12/09 04:57:42;;;;;;;42.70;15.90;;;;;;;5.24;67.29;100138.94;4951471;28;96947;-88
2021/12/09 05:00:14;;;;;;;51.20;16.77;;;;;;;5.25;67.45;100129.53;4952228;28;98154;-88
2021/12/09 05:05:06;;;;;;;47.03;17.07;;;;;;;5.28;67.42;100129.34;4945509;28;97100;-88
2021/12/09 05:07:31;;;;;;;38.20;15.13;;;;;;;5.31;67.48;100131.13;4966354;28;97380;-88
2021/12/09 05:09:56;;;;;;;38.13;15.60;;;;;;;5.31;67.61;100136.59;4945514;28;97573;-88
2021/12/09 05:12:22;;;;;;;46.43;17.40;;;;;;;5.31;67.22;100144.00;4945005;28;97402;-90
2021/12/09 05:14:48;;;;;;;50.37;16.67;;;;;;;5.31;67.24;100152.19;4945844;28;97076;-90
2021/12/09 05:17:15;;;;;;;45.10;16.50;;;;;;;5.28;67.06;100159.34;4959938;28;96932;-89
2021/12/09 05:19:41;;;;;;;54.63;18.07;;;;;;;5.24;67.44;100164.22;4945038;28;96868;-90
2021/12/09 05:22:14;;;;;;;47.10;17.07;;;;;;;5.24;67.27;100161.47;4915634;28;97128;-89
2021/12/09 05:24:41;;;;;;;42.60;15.70;;;;;;;5.21;67.48;100169.84;4937886;28;97209;-88
2021/12/09 05:27:08;;;;;;;43.27;16.30;;;;;;;5.22;67.47;100177.56;4946425;28;97126;-91
2021/12/09 05:29:39;;;;;;;45.20;17.17;;;;;;;5.25;67.28;100195.72;4948688;28;99575;-89
2021/12/09 05:32:12;;;;;;;42.33;17.23;;;;;;;5.23;67.26;100200.91;4945271;28;97079;-90
2021/12/09 05:34:46;;;;;;;43.80;14.80;;;;;;;5.29;67.10;100192.81;4947901;28;96957;-90
2021/12/09 05:37:16;;;;;;;41.53;16.17;;;;;;;5.31;67.35;100199.31;4962458;28;97027;-89
2021/12/09 05:39:42;;;;;;;45.07;16.77;;;;;;;5.33;67.43;100185.97;4961372;28;97324;-89
2021/12/09 05:42:09;;;;;;;47.67;17.67;;;;;;;5.31;67.23;100193.84;4944605;28;97639;-88
2021/12/09 05:44:35;;;;;;;48.33;16.90;;;;;;;5.27;66.82;100190.56;4947657;28;97040;-88
2021/12/09 05:47:02;;;;;;;46.77;16.07;;;;;;;5.28;67.22;100189.34;4963484;28;97213;-90
2021/12/09 05:49:28;;;;;;;47.67;16.30;;;;;;;5.30;67.29;100188.88;4948020;28;99564;-88
2021/12/09 05:51:54;;;;;;;37.27;15.00;;;;;;;5.34;67.14;100203.06;4947592;28;96882;-89
2021/12/09 05:54:19;;;;;;;44.53;18.70;;;;;;;5.30;67.09;100205.22;4949721;28;96934;-89
2021/12/09 05:56:45;;;;;;;41.20;15.90;;;;;;;5.24;67.24;100191.47;4951825;28;97015;-88
2021/12/09 05:59:10;;;;;;;46.87;17.27;;;;;;;5.30;67.09;100206.00;4948100;28;97285;-88
2021/12/09 06:01:38;;;;;;;42.10;16.77;;;;;;;5.29;67.28;100201.75;4962777;28;97305;-89
2021/12/09 06:04:04;;;;;;;39.97;16.30;;;;;;;5.26;67.08;100207.41;4946275;28;97251;-89
2021/12/09 06:06:30;;;;;;;47.07;17.73;;;;;;;5.26;67.00;100204.66;4966761;28;97049;-89
2021/12/09 06:08:55;;;;;;;45.17;17.90;;;;;;;5.25;67.01;100212.09;4965645;28;98062;-88
2021/12/09 06:11:21;;;;;;;43.57;15.93;;;;;;;5.27;66.85;100220.56;4948291;28;97306;-89
2021/12/09 06:13:48;;;;;;;41.03;16.13;;;;;;;5.26;67.09;100213.56;4947165;28;96792;-88
2021/12/09 06:16:14;;;;;;;41.87;16.90;;;;;;;5.23;67.01;100209.06;4950406;28;96898;-89
2021/12/09 06:18:40;;;;;;;47.77;17.30;;;;;;;5.23;67.18;100216.50;4959060;28;98796;-88
2021/12/09 06:21:05;;;;;;;46.03;16.80;;;;;;;5.17;67.25;100210.94;4947416;28;96970;-90
2021/12/09 06:23:31;;;;;;;50.57;18.57;;;;;;;5.22;67.10;100223.91;4947766;28;97132;-90
2021/12/09 06:25:57;;;;;;;53.23;19.70;;;;;;;5.23;66.98;100230.13;4948112;28;97171;-89
2021/12/09 06:28:23;;;;;;;52.33;17.50;;;;;;;5.22;67.07;100228.63;4949074;28;97552;-90
2021/12/09 06:30:48;;;;;;;44.40;17.40;;;;;;;5.22;67.10;100231.38;4946250;28;100862;-90
2021/12/09 06:33:14;;;;;;;50.20;17.87;;;;;;;5.16;67.03;100239.41;4946498;28;97395;-89
2021/12/09 06:35:40;;;;;;;42.30;18.80;;;;;;;5.15;66.93;100224.28;4954426;28;96928;-90
2021/12/09 06:38:11;;;;;;;45.37;16.53;;;;;;;5.12;66.99;100225.22;4945686;28;97703;-89
2021/12/09 06:40:37;;;;;;;42.27;16.33;;;;;;;5.06;67.08;100213.44;4950200;28;97478;-91
2021/12/09 06:43:03;;;;;;;41.30;16.30;;;;;;;5.10;67.23;100224.16;4944982;28;96844;-89
2021/12/09 06:45:30;;;;;;;44.63;15.23;;;;;;;5.12;67.32;100224.44;4964589;28;96991;-88
2021/12/09 06:47:55;;;;;;;39.47;15.77;;;;;;;4.99;66.88;100213.03;4947200;28;103000;-88
2021/12/09 06:50:22;;;;;;;40.30;16.97;;;;;;;5.10;67.10;100224.91;4946605;28;96810;-89
2021/12/09 06:52:47;;;;;;;42.07;16.93;;;;;;;5.11;66.97;100236.59;4945902;28;97347;-91
2021/12/09 06:55:16;;;;;;;45.60;17.57;;;;;;;5.05;67.12;100233.72;4941304;28;96914;-89
2021/12/09 06:57:45;;;;;;;48.20;16.77;;;;;;;5.11;67.12;100223.69;4947592;28;99486;-90
2021/12/09 07:00:18;;;;;;;51.50;19.47;;;;;;;5.11;66.94;100222.97;4942369;28;97450;-90
2021/12/09 07:02:46;;;;;;;41.80;16.90;;;;;;;5.10;66.94;100224.16;4946515;28;96957;-88
2021/12/09 07:05:14;;;;;;;43.37;18.17;;;;;;;5.12;67.02;100221.72;4946009;28;96856;-90
2021/12/09 07:07:39;;;;;;;46.33;17.00;;;;;;;5.12;67.00;100224.44;4964592;28;96985;-90
2021/12/09 07:10:08;;;;;;;41.90;17.80;;;;;;;5.13;66.91;100218.53;4946441;28;96912;-90
2021/12/09 07:12:35;;;;;;;43.67;15.87;;;;;;;5.17;67.02;100221.09;4948235;28;96648;-91
2021/12/09 07:15:02;;;;;;;39.33;16.80;;;;;;;5.15;67.05;100226.25;4966849;28;96995;-90
2021/12/09 07:17:28;;;;;;;46.40;17.07;;;;;;;5.16;66.94;100222.28;4945871;28;97371;-87
2021/12/09 07:19:53;;;;;;;44.13;16.60;;;;;;;5.15;66.79;100232.47;4945833;28;102959;-90
2021/12/09 07:22:18;;;;;;;41.30;16.10;;;;;;;5.15;66.79;100239.88;4947037;28;97243;-89
2021/12/09 07:24:45;;;;;;;41.43;16.23;;;;;;;5.15;67.09;100237.16;4948433;28;96942;-88
2021/12/09 07:27:10;;;;;;;43.23;16.03;;;;;;;5.19;66.60;100232.28;4947389;28;97639;-89
2021/12/09 07:29:36;;;;;;;41.40;15.67;;;;;;;5.17;66.76;100232.00;4944413;28;98475;-90
2021/12/09 07:32:01;;;;;;;43.60;16.00;;;;;;;5.15;66.69;100231.72;4945758;28;97242;-88
2021/12/09 07:34:26;;;;;;;39.27;17.03;;;;;;;5.12;66.85;100235.34;4944274;28;97343;-90
2021/12/09 07:36:52;;;;;;;44.90;17.83;;;;;;;5.14;67.07;100227.47;4946036;28;97030;-89
2021/12/09 07:39:17;;;;;;;42.47;16.43;;;;;;;5.12;67.04;100240.81;4946760;28;97439;-91
2021/12/09 07:41:43;;;;;;;41.37;17.63;;;;;;;5.18;66.85;100245.16;4948601;28;96825;-89
2021/12/09 07:44:10;;;;;;;38.43;15.50;;;;;;;5.14;66.78;100250.03;4945538;28;96780;-89
2021/12/09 07:46:36;;;;;;;38.00;16.17;;;;;;;5.11;66.90;100248.22;4946829;28;98031;-90
2021/12/09 07:49:02;;;;;;;45.33;17.00;;;;;;;5.14;66.90;100258.22;4945715;28;98960;-90
2021/12/09 07:51:27;;;;;;;43.33;15.80;;;;;;;5.13;66.71;100245.78;4945663;28;96846;-90
2021/12/09 07:53:53;;;;;;;38.23;16.07;;;;;;;5.16;66.78;100260.47;4947708;28;97017;-90
2021/12/09 07:56:19;;;;;;;44.87;17.47;;;;;;;5.16;66.66;100261.22;4942447;28;96699;-89
2021/12/09 07:58:44;;;;;;;41.07;16.77;;;;;;;5.17;66.67;100251.09;4946318;28;97509;-90
2021/12/09 08:01:11;;;;;;;36.97;16.13;;;;;;;5.18;66.67;100247.13;4959963;28;97835;-90
2021/12/09 08:03:37;;;;;;;37.43;15.73;;;;;;;5.16;66.60;100252.28;4948976;28;97136;-90
2021/12/09 08:06:03;;;;;;;45.07;17.50;;;;;;;5.14;66.79;100260.19;4945149;28;102130;-90
2021/12/09 08:08:29;;;;;;;50.67;17.20;;;;;;;5.16;67.02;100266.69;4944784;28;97360;-90
2021/12/09 08:10:54;;;;;;;42.53;17.17;;;;;;;5.17;66.59;100246.38;4947611;28;96881;-90
2021/12/09 08:13:21;;;;;;;46.97;18.27;;;;;;;5.18;66.95;100250.59;4951105;28;97325;-91
2021/12/09 08:15:49;;;;;;;41.10;17.13;;;;;;;5.19;66.99;100252.13;4949149;28;97594;-89
2021/12/09 08:20:44;;;;;;;49.63;17.20;;;;;;;5.21;66.58;100251.66;4949728;28;96748;-90
2021/12/09 08:23:10;;;;;;;49.47;17.50;;;;;;;5.26;66.64;100248.28;4951225;28;96893;-90
2021/12/09 08:25:35;;;;;;;49.90;17.70;;;;;;;5.24;66.74;100231.66;4949011;28;97050;-90
2021/12/09 08:28:01;;;;;;;36.33;15.93;;;;;;;5.25;66.84;100242.09;4950447;28;98165;-89
2021/12/09 08:30:26;;;;;;;38.67;17.10;;;;;;;5.28;66.69;100240.41;4951047;28;97324;-89
2021/12/09 08:32:53;;;;;;;43.40;17.37;;;;;;;5.27;66.84;100236.16;4947832;28;97830;-89
2021/12/09 08:35:20;;;;;;;41.40;17.37;;;;;;;5.27;66.74;100261.47;4965130;28;99663;-89
2021/12/09 08:37:46;;;;;;;43.30;16.30;;;;;;;5.28;66.57;100257.53;4949470;28;99744;-90
2021/12/09 08:40:13;;;;;;;45.27;17.70;;;;;;;5.31;66.77;100264.00;4962304;28;96719;-89
2021/12/09 08:42:38;;;;;;;35.37;16.20;;;;;;;5.31;66.75;100266.72;4944839;28;96883;-88
2021/12/09 08:45:08;;;;;;;36.03;16.13;;;;;;;5.26;66.52;100270.13;4948259;28;97617;-89
2021/12/09 08:47:34;;;;;;;41.77;16.83;;;;;;;5.33;66.72;100261.56;4951266;28;97662;-89
2021/12/09 08:50:00;;;;;;;44.90;15.73;;;;;;;5.31;66.83;100283.09;4951417;28;97545;-90
2021/12/09 08:52:25;;;;;;;41.30;18.40;;;;;;;5.32;66.75;100258.09;4951712;28;96813;-87
2021/12/09 08:54:51;;;;;;;47.67;17.77;;;;;;;5.34;66.59;100282.16;4969552;28;97992;-89
2021/12/09 08:57:16;;;;;;;39.87;16.53;;;;;;;5.37;66.75;100273.06;4952569;28;99494;-88
2021/12/09 08:59:42;;;;;;;39.80;17.30;;;;;;;5.34;66.73;100254.91;4961194;28;96996;-88
2021/12/09 09:02:07;;;;;;;39.17;16.03;;;;;;;5.41;66.78;100281.81;4954779;28;97452;-89
2021/12/09 09:04:33;;;;;;;42.57;16.50;;;;;;;5.43;66.51;100289.53;4955292;28;97578;-89
2021/12/09 09:07:00;;;;;;;38.57;16.40;;;;;;;5.46;66.30;100272.97;4953957;28;96832;-89
2021/12/09 09:09:32;;;;;;;38.20;15.80;;;;;;;5.49;66.37;100274.78;4953154;28;97401;-88
2021/12/09 09:11:58;;;;;;;37.97;17.30;;;;;;;5.49;66.30;100263.13;4970237;28;96953;-88
2021/12/09 09:14:23;;;;;;;40.67;15.90;;;;;;;5.42;66.55;100269.69;4950315;28;98563;-89
2021/12/09 09:16:50;;;;;;;43.10;17.80;;;;;;;5.48;66.61;100281.47;4949713;28;99083;-89
2021/12/09 09:19:15;;;;;;;42.17;17.00;;;;;;;5.50;66.60;100289.94;4950756;28;97145;-88
2021/12/09 09:21:42;;;;;;;42.00;16.80;;;;;;;5.54;66.45;100285.06;4953008;28;97089;-89
2021/12/09 09:24:08;;;;;;;38.80;16.60;;;;;;;5.57;66.70;100278.66;4951135;28;97463;-87
2021/12/09 09:26:34;;;;;;;38.93;16.27;;;;;;;5.65;66.43;100287.25;4950271;28;97720;-88
2021/12/09 09:29:00;;;;;;;40.27;16.30;;;;;;;5.68;66.50;100272.69;4949784;28;97043;-88
2021/12/09 09:31:29;;;;;;;36.10;16.13;;;;;;;5.71;66.49;100269.75;4952654;28;97463;-90
2021/12/09 09:33:55;;;;;;;36.50;14.70;;;;;;;5.73;66.37;100264.59;4948609;28;96979;-88
2021/12/09 09:36:21;;;;;;;38.10;16.00;;;;;;;5.78;66.52;100274.09;4949756;28;97059;-87
2021/12/09 09:38:47;;;;;;;37.77;16.17;;;;;;;5.78;66.40;100299.44;4949534;28;97270;-89
2021/12/09 09:41:16;;;;;;;33.63;16.27;;;;;;;5.79;66.41;100294.69;4947358;28;101186;-87
2021/12/09 09:46:13;;;;;;;39.60;16.90;;;;;;;5.84;66.46;100303.03;4950377;28;97242;-90
2021/12/09 09:48:39;;;;;;;33.13;16.00;;;;;;;5.86;66.35;100286.19;4950034;28;96872;-89
2021/12/09 09:51:07;;;;;;;39.83;16.30;;;;;;;5.85;66.22;100287.41;4946203;28;96915;-88
2021/12/09 09:53:33;;;;;;;36.27;17.30;;;;;;;5.86;66.59;100297.84;4949388;28;99623;-90
2021/12/09 09:55:58;;;;;;;38.07;17.00;;;;;;;5.87;66.71;100313.03;4948163;28;97622;-88
2021/12/09 09:58:25;;;;;;;37.93;16.80;;;;;;;5.91;66.31;100291.00;4947993;28;97486;-89
2021/12/09 10:00:51;;;;;;;41.07;16.63;;;;;;;5.92;66.34;100290.53;4949380;28;96982;-90
2021/12/09 10:03:17;;;;;;;34.40;15.53;;;;;;;5.90;66.21;100309.34;4950178;28;99255;-88
2021/12/09 10:05:52;;;;;;;36.17;15.70;;;;;;;5.93;66.16;100308.41;4949339;28;96977;-89
2021/12/09 10:08:18;;;;;;;36.13;16.17;;;;;;;5.96;66.29;100282.91;4947101;28;96817;-88
2021/12/09 10:10:46;;;;;;;43.23;17.07;;;;;;;5.98;66.13;100280.44;4948581;28;96671;-89
2021/12/09 10:13:14;;;;;;;31.77;15.17;;;;;;;6.00;66.33;100283.50;4963443;28;99714;-88
2021/12/09 10:15:39;;;;;;;37.60;17.77;;;;;;;6.00;66.07;100272.56;4961346;28;97155;-88
2021/12/09 10:18:05;;;;;;;41.63;17.60;;;;;;;5.99;66.03;100265.59;4975824;28;96728;-88
2021/12/09 10:20:51;;;;;;;39.63;16.10;;;;;;;6.02;66.01;100263.91;4966402;28;96923;-88
2021/12/09 10:23:31;;;;;;;33.97;16.00;;;;;;;6.05;66.34;100255.50;4945626;28;100916;-88
2021/12/09 10:26:27;;;;;;;37.40;15.53;;;;;;;6.05;66.15;100260.97;4942451;28;99222;-89
2021/12/09 10:29:20;;;;;;;33.50;16.40;;;;;;;6.07;66.03;100263.97;4944899;28;96763;-88
2021/12/09 10:31:49;;;;;;;34.60;16.20;;;;;;;6.11;66.35;100260.31;4947984;28;97834;-89
2021/12/09 10:34:37;;;;;;;39.23;16.33;;;;;;;6.13;65.72;100260.59;4947474;28;101106;-89
2021/12/09 10:37:22;;;;;;;30.77;15.63;;;;;;;6.15;66.06;100252.69;4947236;28;100552;-89
2021/12/09 10:39:54;;;;;;;38.43;15.70;;;;;;;6.16;66.49;100246.03;4945826;28;96853;-89
2021/12/09 10:42:22;;;;;;;37.93;16.63;;;;;;;6.14;66.07;100246.47;4947626;28;97107;-90
2021/12/09 10:44:51;;;;;;;34.30;15.03;;;;;;;6.23;66.03;100240.16;4948359;28;98464;-87
2021/12/09 10:47:34;;;;;;;38.03;16.27;;;;;;;6.24;65.90;100256.09;4947716;28;99589;-88
2021/12/09 10:50:07;;;;;;;35.37;15.37;;;;;;;6.29;66.41;100235.56;4947023;28;97079;-89
2021/12/09 10:52:48;;;;;;;33.50;15.10;;;;;;;6.31;66.24;100241.31;4948015;28;96852;-88
2021/12/09 10:55:19;;;;;;;41.93;16.97;;;;;;;6.31;65.69;100246.75;4946765;28;101025;-89
2021/12/09 10:57:53;;;;;;;39.23;16.37;;;;;;;6.35;65.87;100228.97;4947929;28;99571;-88
2021/12/09 11:00:26;;;;;;;34.93;16.67;;;;;;;6.41;65.72;100242.69;4948524;28;96942;-88
2021/12/09 11:03:01;;;;;;;34.90;16.30;;;;;;;6.40;65.91;100252.13;4947972;28;98046;-89
2021/12/09 11:05:28;;;;;;;39.93;17.27;;;;;;;6.43;66.12;100254.66;4974272;28;96892;-88
2021/12/09 11:08:10;;;;;;;39.63;17.97;;;;;;;6.47;66.13;100252.47;4965187;28;97015;-88
2021/12/09 11:10:44;;;;;;;47.47;16.63;;;;;;;6.53;66.03;100255.31;4953645;28;96929;-89
2021/12/09 11:13:10;;;;;;;37.90;16.13;;;;;;;6.56;66.44;100244.19;4947471;28;97109;-89
2021/12/09 11:15:46;;;;;;;32.70;16.07;;;;;;;6.61;66.25;100234.56;4961201;28;97893;-89
2021/12/09 11:18:26;;;;;;;35.37;16.47;;;;;;;6.62;65.63;100222.38;4960405;28;97060;-89
2021/12/09 11:20:52;;;;;;;32.60;15.80;;;;;;;6.63;66.12;100223.91;4965492;28;96902;-89
2021/12/09 11:23:44;;;;;;;39.77;16.57;;;;;;;6.67;65.77;100217.00;4946906;28;97191;-89
2021/12/09 11:26:27;;;;;;;34.60;16.33;;;;;;;6.69;65.66;100222.00;4945086;28;102767;-88